Time;durP1;ratioP1;P1;durP2;ratioP2;P2;SDS_P1;SDS_P2;PMS_P1;PMS_P2;Temp;Humidity;BMP_temperature;BMP_pressure;BME280_temperature;BME280_humidity;BME280_pressure;Samples;Min_cycle;Max_cycle;Signal;HPM_P1;HPM_P2
2023/08/24 00:00:12;;;;;;;9.85;3.02;;;;;;;18.76;61.76;100425.95;1717495;83;21047;-60
2023/08/24 00:02:40;;;;;;;7.67;3.17;;;;;;;18.71;61.98;100429.48;1685277;83;21075;-59
2023/08/24 00:05:09;;;;;;;5.05;2.90;;;;;;;18.66;62.17;100424.67;1717288;83;21070;-58
2023/08/24 00:07:38;;;;;;;6.67;3.00;;;;;;;18.65;62.37;100431.31;1717592;83;21475;-59
2023/08/24 00:10:08;;;;;;;4.30;2.67;;;;;;;18.65;62.49;100433.25;1717407;83;21003;-59
2023/08/24 00:12:39;;;;;;;5.35;3.00;;;;;;;18.62;62.61;100430.98;1717576;83;21031;-61
2023/08/24 00:15:10;;;;;;;6.42;2.80;;;;;;;18.61;62.67;100427.36;1717359;83;21114;-59
2023/08/24 00:17:40;;;;;;;5.80;2.83;;;;;;;18.61;62.80;100432.91;1717521;83;21055;-60
2023/08/24 00:20:11;;;;;;;5.87;2.70;;;;;;;18.57;63.04;100426.69;1717346;83;21079;-60
2023/08/24 00:22:40;;;;;;;7.30;3.00;;;;;;;18.55;63.17;100427.48;1717464;83;21038;-60
2023/08/24 00:25:09;;;;;;;5.70;3.02;;;;;;;18.50;63.31;100424.08;1717564;83;21074;-60
2023/08/24 00:27:38;;;;;;;6.62;3.30;;;;;;;18.45;63.59;100426.75;1717412;81;21092;-58
2023/08/24 00:30:08;;;;;;;7.22;3.10;;;;;;;18.44;63.75;100425.07;1717408;83;21055;-59
2023/08/24 00:32:38;;;;;;;7.45;3.30;;;;;;;18.45;63.86;100420.36;1717427;83;21062;-60
2023/08/24 00:35:10;;;;;;;6.30;3.87;;;;;;;18.43;63.99;100424.77;1717357;83;21126;-60
2023/08/24 00:37:41;;;;;;;6.78;3.70;;;;;;;18.38;64.32;100419.97;1717550;83;21067;-60
2023/08/24 00:40:10;;;;;;;6.83;3.52;;;;;;;18.37;64.59;100434.09;1717468;83;21082;-60
2023/08/24 00:42:48;;;;;;;8.85;3.60;;;;;;;18.35;64.73;100434.88;1693421;83;21023;-60
2023/08/24 00:45:18;;;;;;;9.80;3.50;;;;;;;18.34;64.84;100431.81;1717229;83;21553;-61
2023/08/24 00:47:48;;;;;;;5.62;3.15;;;;;;;18.36;64.88;100431.02;1717307;83;21074;-60
2023/08/24 00:50:19;;;;;;;10.75;4.33;;;;;;;18.37;64.86;100429.38;1685910;83;21043;-60
2023/08/24 00:52:48;;;;;;;6.85;3.50;;;;;;;18.38;64.64;100427.45;1693208;83;21074;-58
2023/08/24 00:55:17;;;;;;;6.55;3.87;;;;;;;18.38;64.58;100428.30;1717542;83;21039;-60
2023/08/24 00:57:46;;;;;;;8.95;3.92;;;;;;;18.35;64.67;100427.95;1717353;83;21169;-58
2023/08/24 01:00:17;;;;;;;6.67;3.75;;;;;;;18.31;64.80;100424.83;1717429;83;21027;-60
2023/08/24 01:02:47;;;;;;;11.57;4.50;;;;;;;18.29;64.94;100428.94;1717302;83;21511;-61
2023/08/24 01:05:18;;;;;;;7.35;3.72;;;;;;;18.26;65.13;100428.89;1717203;83;21059;-60
2023/08/24 01:07:47;;;;;;;10.72;3.75;;;;;;;18.23;65.24;100425.23;1717446;83;21062;-61
2023/08/24 01:10:17;;;;;;;6.72;3.92;;;;;;;18.17;65.39;100424.80;1717574;83;21055;-59
2023/08/24 01:13:04;;;;;;;7.25;3.30;;;;;;;18.14;65.47;100425.84;1717628;83;21027;-60
2023/08/24 01:15:47;;;;;;;8.90;3.37;;;;;;;18.06;65.58;100423.75;1717401;83;21051;-61
2023/08/24 01:18:16;;;;;;;8.03;3.90;;;;;;;18.04;65.83;100424.54;1688180;85;21485;-60
2023/08/24 01:20:46;;;;;;;9.45;4.05;;;;;;;18.04;66.02;100421.77;1675926;85;21032;-61
2023/08/24 01:23:35;;;;;;;8.05;4.08;;;;;;;18.00;66.17;100424.73;1717508;83;21058;-60
2023/08/24 01:26:17;;;;;;;6.45;3.75;;;;;;;17.99;66.35;100423.59;1671687;83;21044;-60
2023/08/24 01:28:47;;;;;;;8.63;3.70;;;;;;;17.97;66.56;100425.77;1717480;81;21102;-61
2023/08/24 01:31:17;;;;;;;6.40;3.95;;;;;;;17.91;66.76;100422.59;1685151;83;21054;-60
2023/08/24 01:33:46;;;;;;;6.70;3.67;;;;;;;17.90;66.95;100425.91;1717494;83;21070;-60
2023/08/24 01:36:19;;;;;;;7.75;3.95;;;;;;;17.88;67.10;100433.63;1717666;83;21031;-59
2023/08/24 01:39:09;;;;;;;10.32;3.95;;;;;;;17.89;67.08;100425.61;1717567;83;21039;-59
2023/08/24 01:41:42;;;;;;;8.80;3.90;;;;;;;17.88;67.13;100427.25;1717482;83;21007;-60
2023/08/24 01:44:13;;;;;;;7.72;3.72;;;;;;;17.86;67.16;100422.48;1717615;83;21475;-59
2023/08/24 01:46:43;;;;;;;11.10;3.95;;;;;;;17.84;67.27;100423.28;1716905;83;21082;-61
2023/08/24 01:49:14;;;;;;;7.42;3.85;;;;;;;17.83;67.36;100426.59;1717352;83;21525;-59
2023/08/24 01:51:43;;;;;;;7.92;3.72;;;;;;;17.81;67.50;100421.84;1717650;83;21059;-59
2023/08/24 01:54:13;;;;;;;7.30;3.77;;;;;;;17.77;67.64;100426.19;1717700;83;21058;-60
2023/08/24 01:56:42;;;;;;;6.33;3.80;;;;;;;17.71;67.79;100428.55;1717620;83;21078;-60
2023/08/24 01:59:11;;;;;;;6.22;3.52;;;;;;;17.65;67.98;100433.10;1717525;83;21083;-58
2023/08/24 02:01:42;;;;;;;7.40;3.72;;;;;;;17.64;68.15;100426.42;1717416;83;21087;-60
2023/08/24 02:04:13;;;;;;;9.53;3.90;;;;;;;17.65;68.24;100435.03;1717589;83;21343;-61
2023/08/24 02:06:43;;;;;;;7.72;3.58;;;;;;;17.65;68.36;100435.03;1717742;83;21070;-60
2023/08/24 02:09:13;;;;;;;8.13;3.65;;;;;;;17.65;68.39;100444.73;1717454;83;21111;-59
2023/08/24 02:11:42;;;;;;;5.28;3.60;;;;;;;17.61;68.44;100440.77;1717474;83;21548;-60
2023/08/24 02:14:12;;;;;;;8.15;3.42;;;;;;;17.57;68.60;100440.41;1717474;83;20999;-60
2023/08/24 02:16:41;;;;;;;7.80;3.50;;;;;;;17.56;68.64;100435.11;1717599;83;21047;-59
2023/08/24 02:19:10;;;;;;;7.80;3.25;;;;;;;17.57;68.65;100438.18;1717620;83;21031;-61
2023/08/24 02:21:40;;;;;;;8.05;3.42;;;;;;;17.59;68.54;100436.84;1717447;83;21495;-60
2023/08/24 02:24:10;;;;;;;5.60;3.33;;;;;;;17.60;68.57;100437.16;1717520;83;21031;-60
2023/08/24 02:26:39;;;;;;;6.40;3.30;;;;;;;17.59;68.57;100437.39;1717526;83;21071;-60
2023/08/24 02:29:08;;;;;;;5.55;3.10;;;;;;;17.62;68.52;100439.13;1717429;83;21490;-59
2023/08/24 02:31:37;;;;;;;6.17;3.60;;;;;;;17.63;68.42;100435.82;1717485;83;21051;-60
2023/08/24 02:34:07;;;;;;;6.42;3.50;;;;;;;17.63;68.36;100437.20;1717362;83;21051;-61
2023/08/24 02:36:37;;;;;;;6.28;3.20;;;;;;;17.62;68.27;100441.06;1717578;83;21062;-59
2023/08/24 02:39:07;;;;;;;4.78;2.92;;;;;;;17.59;68.21;100433.23;1717320;83;21537;-60
2023/08/24 02:41:36;;;;;;;8.05;3.08;;;;;;;17.56;68.35;100433.18;1717357;83;21506;-60
2023/08/24 02:44:06;;;;;;;6.35;3.12;;;;;;;17.53;68.38;100439.17;1717333;83;21003;-61
2023/08/24 02:46:36;;;;;;;5.47;3.05;;;;;;;17.51;68.41;100438.58;1717317;83;21082;-59
2023/08/24 02:49:05;;;;;;;6.47;3.10;;;;;;;17.48;68.51;100438.22;1717508;83;21055;-60
2023/08/24 02:51:34;;;;;;;5.85;3.02;;;;;;;17.45;68.60;100436.77;1717502;83;21110;-60
2023/08/24 02:54:06;;;;;;;5.92;3.15;;;;;;;17.41;68.58;100441.95;1717617;83;21030;-59
2023/08/24 02:56:36;;;;;;;8.45;3.10;;;;;;;17.36;68.76;100441.84;1717335;83;21067;-58
2023/08/24 02:59:06;;;;;;;4.47;2.95;;;;;;;17.35;68.96;100448.46;1717479;83;21024;-59
2023/08/24 03:01:38;;;;;;;6.60;3.22;;;;;;;17.33;69.11;100447.02;1693709;83;21043;-59
2023/08/24 03:04:07;;;;;;;7.53;3.40;;;;;;;17.29;69.29;100445.27;1717516;83;21586;-60
2023/08/24 03:06:38;;;;;;;6.53;2.80;;;;;;;17.29;69.47;100443.88;1717794;83;21087;-60
2023/08/24 03:09:08;;;;;;;4.72;2.92;;;;;;;17.30;69.44;100448.34;1717630;83;21058;-60
2023/08/24 03:11:36;;;;;;;8.78;3.08;;;;;;;17.29;69.50;100445.27;1717492;83;21055;-59
2023/08/24 03:14:05;;;;;;;6.12;3.42;;;;;;;17.28;69.55;100440.81;1717570;83;21050;-60
2023/08/24 03:16:37;;;;;;;5.50;3.08;;;;;;;17.30;69.49;100437.80;1717548;83;21078;-60
2023/08/24 03:19:07;;;;;;;7.12;3.05;;;;;;;17.30;69.59;100437.27;1717545;83;21058;-60
2023/08/24 03:21:37;;;;;;;5.20;3.12;;;;;;;17.30;69.56;100443.34;1717402;83;21479;-59
2023/08/24 03:24:07;;;;;;;7.45;2.98;;;;;;;17.28;69.54;100440.81;1717324;83;21039;-60
2023/08/24 03:26:36;;;;;;;5.17;3.00;;;;;;;17.26;69.58;100440.75;1717543;83;21043;-59
2023/08/24 03:29:06;;;;;;;4.47;3.02;;;;;;;17.25;69.76;100439.91;1720854;83;21050;-61
2023/08/24 03:31:36;;;;;;;11.00;3.25;;;;;;;17.30;69.94;100439.19;1728265;83;21722;-59
2023/08/24 03:34:06;;;;;;;8.13;3.12;;;;;;;17.31;69.89;100440.33;1727914;83;21058;-59
2023/08/24 03:36:37;;;;;;;6.40;3.22;;;;;;;17.32;69.94;100439.80;1728009;83;21097;-60
2023/08/24 03:39:07;;;;;;;8.53;3.58;;;;;;;17.32;70.07;100442.56;1728174;83;21042;-60
2023/08/24 03:41:36;;;;;;;6.78;3.52;;;;;;;17.33;70.21;100442.86;1727938;83;21002;-60
2023/08/24 03:44:05;;;;;;;8.03;3.50;;;;;;;17.33;70.30;100453.40;1727923;83;21469;-60
2023/08/24 03:46:36;;;;;;;8.43;3.50;;;;;;;17.32;70.41;100453.09;1727938;83;21015;-59
2023/08/24 03:49:05;;;;;;;6.75;3.40;;;;;;;17.32;70.46;100460.02;1728155;83;21476;-59
2023/08/24 03:51:36;;;;;;;15.20;3.85;;;;;;;17.33;70.49;100462.25;1728214;83;21451;-59
2023/08/24 03:54:05;;;;;;;8.90;3.60;;;;;;;17.32;70.66;100475.25;1699503;83;21043;-61
2023/08/24 03:56:35;;;;;;;11.43;3.52;;;;;;;17.30;70.82;100469.11;1727873;83;21014;-59
2023/08/24 03:59:04;;;;;;;6.37;3.65;;;;;;;17.33;70.81;100467.25;1727933;83;21046;-60
2023/08/24 04:01:33;;;;;;;9.65;3.58;;;;;;;17.37;70.57;100466.22;1727931;83;21062;-59
2023/08/24 04:04:03;;;;;;;6.50;3.42;;;;;;;17.39;70.47;100466.28;1727867;83;21086;-62
2023/08/24 04:06:32;;;;;;;6.22;3.77;;;;;;;17.44;70.37;100464.17;1728159;83;21085;-60
2023/08/24 04:09:06;;;;;;;6.55;3.80;;;;;;;17.50;70.30;100462.36;1727974;83;21050;-61
2023/08/24 04:11:36;;;;;;;9.50;3.52;;;;;;;17.54;70.37;100464.95;1728290;83;21031;-61
2023/08/24 04:14:05;;;;;;;8.88;3.52;;;;;;;17.59;70.51;100460.40;1727839;83;21560;-60
2023/08/24 04:16:35;;;;;;;10.50;4.25;;;;;;;17.66;70.42;100457.50;1728204;83;21046;-60
2023/08/24 04:19:04;;;;;;;9.03;4.55;;;;;;;17.74;70.20;100465.48;1728112;83;21050;-59
2023/08/24 04:21:36;;;;;;;10.13;4.00;;;;;;;17.81;70.06;100460.64;1727887;83;21038;-60
2023/08/24 04:24:05;;;;;;;11.03;4.78;;;;;;;17.86;69.92;100463.52;1727908;83;21041;-61
2023/08/24 04:26:34;;;;;;;8.30;4.50;;;;;;;17.92;69.78;100461.16;1727907;83;21482;-59
2023/08/24 04:29:03;;;;;;;8.40;5.00;;;;;;;17.97;69.58;100459.88;1727864;83;21532;-60
2023/08/24 04:31:33;;;;;;;8.80;4.10;;;;;;;18.03;69.43;100460.83;1728064;83;21508;-60
2023/08/24 04:34:04;;;;;;;8.28;4.42;;;;;;;18.11;69.13;100465.15;1728251;83;21029;-60
2023/08/24 04:36:34;;;;;;;19.60;5.22;;;;;;;18.18;68.92;100461.69;1728294;83;21102;-60
2023/08/24 04:39:03;;;;;;;14.75;5.75;;;;;;;18.26;68.62;100459.95;1728127;83;21543;-61
2023/08/24 04:41:33;;;;;;;11.35;5.53;;;;;;;18.33;68.35;100465.64;1728357;83;21269;-60
2023/08/24 04:44:04;;;;;;;13.08;6.05;;;;;;;18.40;68.04;100457.17;1728239;83;21090;-60
2023/08/24 04:46:34;;;;;;;16.87;6.62;;;;;;;18.49;67.80;100461.23;1728262;83;21074;-61
2023/08/24 04:49:04;;;;;;;15.15;6.87;;;;;;;18.56;67.55;100461.92;1728259;83;21035;-59
2023/08/24 04:51:33;;;;;;;14.35;5.92;;;;;;;18.65;67.37;100463.23;1728219;83;21094;-60
2023/08/24 04:54:02;;;;;;;10.00;5.25;;;;;;;18.73;67.14;100453.66;1728141;83;21478;-60
2023/08/24 04:56:32;;;;;;;17.77;6.85;;;;;;;18.81;66.93;100453.80;1728177;83;21533;-60
2023/08/24 04:59:03;;;;;;;17.23;6.42;;;;;;;18.89;66.76;100449.25;1728312;83;21062;-59
2023/08/24 05:01:33;;;;;;;20.20;9.58;;;;;;;18.97;66.40;100457.17;1728156;83;21480;-60
2023/08/24 05:04:02;;;;;;;11.90;5.37;;;;;;;19.03;66.19;100446.44;1728130;83;21090;-60
2023/08/24 05:06:32;;;;;;;14.38;5.30;;;;;;;19.11;65.70;100452.12;1728140;83;21062;-60
2023/08/24 05:09:03;;;;;;;14.75;5.10;;;;;;;19.19;65.36;100457.25;1728088;83;21653;-60
2023/08/24 05:11:33;;;;;;;8.10;4.12;;;;;;;19.27;64.98;100447.10;1728115;83;21041;-59
2023/08/24 05:14:02;;;;;;;14.87;5.15;;;;;;;19.34;64.68;100454.71;1700254;83;21090;-64
2023/08/24 05:16:32;;;;;;;7.28;3.70;;;;;;;19.43;63.56;100449.02;1728270;83;21508;-59
2023/08/24 05:19:03;;;;;;;7.42;3.40;;;;;;;19.54;62.30;100454.25;1728187;83;21010;-60
2023/08/24 05:21:32;;;;;;;9.68;3.83;;;;;;;19.61;61.87;100458.52;1700320;83;21219;-61
2023/08/24 05:24:04;;;;;;;7.10;2.77;;;;;;;19.70;61.64;100456.69;1728061;83;21474;-59
2023/08/24 05:26:33;;;;;;;6.03;2.67;;;;;;;19.77;60.40;100458.73;1728272;83;21066;-61
2023/08/24 05:29:03;;;;;;;6.08;2.80;;;;;;;19.86;59.41;100459.42;1728144;83;21165;-61
2023/08/24 05:31:31;;;;;;;6.20;2.65;;;;;;;19.94;59.15;100458.98;1701862;84;21557;-61
2023/08/24 05:34:01;;;;;;;10.03;2.72;;;;;;;20.02;58.57;100451.28;1701761;84;21468;-61
2023/08/24 05:36:30;;;;;;;6.10;2.50;;;;;;;20.09;57.82;100451.38;1701901;84;21056;-60
2023/08/24 05:39:00;;;;;;;6.37;2.33;;;;;;;20.18;57.01;100449.02;1701786;84;21518;-60
2023/08/24 05:41:31;;;;;;;10.40;2.80;;;;;;;20.28;56.40;100448.29;1701146;84;21016;-60
2023/08/24 05:44:02;;;;;;;6.75;2.40;;;;;;;20.35;56.05;100452.55;1701865;84;21075;-60
2023/08/24 05:46:31;;;;;;;7.55;2.92;;;;;;;20.42;55.86;100450.44;1701589;84;21055;-59
2023/08/24 05:49:00;;;;;;;4.72;2.47;;;;;;;20.49;55.33;100451.06;1701748;84;21063;-60
2023/08/24 05:51:30;;;;;;;8.93;3.47;;;;;;;20.57;54.97;100451.15;1701670;84;21504;-62
2023/08/24 05:54:02;;;;;;;6.00;2.75;;;;;;;20.63;54.48;100445.92;1701636;84;21480;-61
2023/08/24 05:56:32;;;;;;;5.20;2.72;;;;;;;20.70;54.15;100441.53;1701614;84;21113;-60
2023/08/24 05:59:01;;;;;;;6.37;2.50;;;;;;;20.76;53.92;100443.27;1701761;84;21091;-61
2023/08/24 06:01:32;;;;;;;6.37;2.55;;;;;;;20.82;53.80;100439.45;1701686;84;21641;-62
2023/08/24 06:04:02;;;;;;;5.10;2.40;;;;;;;20.87;53.69;100438.11;1701804;84;21087;-62
2023/08/24 06:06:32;;;;;;;5.58;2.47;;;;;;;20.94;53.09;100438.73;1701577;84;21119;-60
2023/08/24 06:09:04;;;;;;;5.97;2.45;;;;;;;20.99;52.72;100435.98;1701794;84;21036;-60
2023/08/24 06:11:35;;;;;;;6.20;2.30;;;;;;;21.05;52.58;100429.90;1663539;86;21067;-60
2023/08/24 06:14:05;;;;;;;6.05;2.40;;;;;;;21.09;52.25;100431.89;1667861;86;21048;-60
2023/08/24 06:16:34;;;;;;;6.83;2.40;;;;;;;21.12;51.86;100435.53;1667868;85;21075;-60
2023/08/24 06:19:04;;;;;;;9.80;2.10;;;;;;;21.18;51.70;100441.98;1667941;86;21048;-60
2023/08/24 06:21:33;;;;;;;3.75;1.75;;;;;;;21.23;51.58;100436.48;1668094;86;21124;-59
2023/08/24 06:24:03;;;;;;;4.33;2.00;;;;;;;21.27;51.43;100434.84;1667984;85;21064;-61
2023/08/24 06:26:32;;;;;;;7.72;2.60;;;;;;;21.31;50.75;100433.75;1668310;85;21060;-62
2023/08/24 06:29:01;;;;;;;6.33;2.87;;;;;;;21.34;50.63;100436.84;1668287;86;21048;-60
2023/08/24 06:31:31;;;;;;;5.87;2.52;;;;;;;21.39;50.38;100431.86;1685348;84;21534;-59
2023/08/24 06:34:01;;;;;;;4.47;1.95;;;;;;;21.47;50.15;100434.17;1688236;85;21043;-59
2023/08/24 06:36:31;;;;;;;6.58;2.10;;;;;;;21.50;50.16;100433.64;1688325;84;21107;-60
2023/08/24 06:39:04;;;;;;;2.52;1.65;;;;;;;21.55;48.81;100439.24;1688523;85;21539;-60
2023/08/24 06:41:36;;;;;;;9.55;2.40;;;;;;;21.60;48.47;100442.06;1688395;84;21113;-60
2023/08/24 06:44:07;;;;;;;4.00;1.75;;;;;;;21.64;48.59;100439.02;1688139;85;21071;-61
2023/08/24 06:46:36;;;;;;;3.70;1.42;;;;;;;21.68;48.52;100438.77;1688251;85;21472;-60
2023/08/24 06:49:06;;;;;;;3.58;1.32;;;;;;;21.72;47.60;100446.87;1688160;85;21073;-61
2023/08/24 06:51:36;;;;;;;2.70;1.47;;;;;;;21.76;47.51;100444.38;1688210;85;21052;-60
2023/08/24 06:54:06;;;;;;;4.55;1.82;;;;;;;21.85;47.66;100448.34;1688251;85;21072;-60
2023/08/24 06:56:36;;;;;;;2.22;1.50;;;;;;;21.93;47.72;100460.93;1688528;84;21131;-60
2023/08/24 06:59:05;;;;;;;3.20;1.35;;;;;;;22.02;47.34;100460.14;1688271;85;21057;-61
2023/08/24 07:01:34;;;;;;;8.18;2.20;;;;;;;22.13;47.52;100459.13;1688207;85;21013;-60
2023/08/24 07:04:04;;;;;;;6.12;1.98;;;;;;;22.39;46.85;100457.27;1688131;85;21592;-60
2023/08/24 07:06:37;;;;;;;5.47;1.60;;;;;;;22.82;45.89;100458.55;1688110;85;21092;-61
2023/08/24 07:09:07;;;;;;;4.28;1.70;;;;;;;23.26;45.02;100457.44;1688278;85;21496;-61
2023/08/24 07:11:36;;;;;;;6.42;2.05;;;;;;;23.79;43.86;100443.98;1641624;85;21060;-59
2023/08/24 07:14:05;;;;;;;3.25;1.55;;;;;;;24.33;42.40;100444.11;1688086;85;21052;-60
2023/08/24 07:16:35;;;;;;;4.75;1.80;;;;;;;24.83;40.40;100445.78;1688198;84;21550;-59
2023/08/24 07:19:05;;;;;;;3.60;1.50;;;;;;;25.35;39.18;100449.88;1688408;85;21602;-60
2023/08/24 07:21:35;;;;;;;3.35;1.65;;;;;;;25.78;38.79;100455.67;1688353;85;21061;-60
2023/08/24 07:24:04;;;;;;;4.20;1.65;;;;;;;26.15;38.44;100450.20;1688343;85;21044;-60
2023/08/24 07:26:34;;;;;;;5.28;1.80;;;;;;;26.56;36.86;100455.30;1688116;85;21101;-60
2023/08/24 07:29:04;;;;;;;2.05;1.27;;;;;;;26.85;35.56;100458.83;1688494;85;21056;-61
2023/08/24 07:31:34;;;;;;;1.57;1.35;;;;;;;27.09;35.47;100462.14;1689944;84;21124;-61
2023/08/24 07:34:06;;;;;;;2.20;1.30;;;;;;;27.41;34.40;100457.95;1690269;85;21013;-60
2023/08/24 07:36:35;;;;;;;2.92;1.47;;;;;;;27.61;34.10;100458.19;1661547;85;21119;-60
2023/08/24 07:39:04;;;;;;;3.75;2.10;;;;;;;27.76;33.29;100455.09;1690651;85;21045;-59
2023/08/24 07:41:33;;;;;;;4.67;1.60;;;;;;;27.77;34.08;100458.16;1690772;85;21048;-61
2023/08/24 07:44:02;;;;;;;3.90;1.60;;;;;;;27.92;32.78;100458.44;1690616;85;21048;-63
2023/08/24 07:46:32;;;;;;;3.87;1.45;;;;;;;27.99;33.23;100456.07;1690717;85;21085;-60
2023/08/24 07:49:02;;;;;;;6.05;1.70;;;;;;;28.07;33.37;100462.95;1690863;85;21016;-60
2023/08/24 07:51:33;;;;;;;5.83;1.75;;;;;;;28.00;33.67;100447.05;1690526;85;21068;-60
2023/08/24 07:54:04;;;;;;;3.83;1.47;;;;;;;28.00;33.40;100457.73;1670871;84;21075;-61
2023/08/24 07:56:33;;;;;;;2.35;1.50;;;;;;;28.16;33.30;100453.20;1684882;84;21158;-61
2023/08/24 07:59:03;;;;;;;7.83;1.70;;;;;;;28.37;32.81;100444.59;1661223;85;21170;-60
2023/08/24 08:01:32;;;;;;;2.52;1.60;;;;;;;28.62;31.94;100447.45;1689433;85;21063;-62
2023/08/24 08:04:02;;;;;;;4.33;1.90;;;;;;;28.88;31.60;100450.53;1665265;85;21105;-63
2023/08/24 08:06:32;;;;;;;5.12;1.85;;;;;;;29.12;31.55;100454.46;1689009;85;21074;-62
2023/08/24 08:09:02;;;;;;;5.65;2.02;;;;;;;29.25;30.81;100448.75;1683660;85;21526;-61
2023/08/24 08:11:32;;;;;;;2.90;1.95;;;;;;;29.34;30.08;100444.03;1690024;84;21029;-61
2023/08/24 08:14:02;;;;;;;6.97;2.45;;;;;;;29.26;30.26;100441.98;1700103;84;21489;-60
2023/08/24 08:16:31;;;;;;;4.83;1.98;;;;;;;29.16;30.47;100445.03;1717879;83;21074;-62
2023/08/24 08:19:01;;;;;;;3.60;1.62;;;;;;;29.19;30.47;100439.33;1672845;84;21198;-60
2023/08/24 08:21:31;;;;;;;3.90;2.00;;;;;;;29.42;30.05;100437.34;1700215;84;21035;-61
2023/08/24 08:24:01;;;;;;;3.52;1.90;;;;;;;29.44;29.64;100440.13;1672512;84;21491;-61
2023/08/24 08:26:31;;;;;;;4.58;3.42;;;;;;;29.27;29.89;100442.23;1699856;84;21071;-61
2023/08/24 08:29:01;;;;;;;3.85;2.00;;;;;;;29.18;30.15;100444.71;1685212;84;21451;-62
2023/08/24 08:31:30;;;;;;;3.33;1.52;;;;;;;29.03;30.20;100438.88;1673391;86;21527;-61
2023/08/24 08:34:04;;;;;;;2.80;2.10;;;;;;;28.85;30.23;100440.72;1673632;86;21113;-61
2023/08/24 08:36:33;;;;;;;4.67;2.30;;;;;;;28.79;30.45;100439.72;1673758;86;21357;-62
2023/08/24 08:39:04;;;;;;;4.60;1.65;;;;;;;28.74;30.02;100444.91;1673584;86;21475;-62
2023/08/24 08:41:36;;;;;;;2.40;1.50;;;;;;;28.48;30.39;100443.80;1673367;86;21156;-61
2023/08/24 08:44:06;;;;;;;3.87;1.62;;;;;;;28.35;30.78;100434.21;1673701;86;21158;-61
2023/08/24 08:46:36;;;;;;;3.37;1.70;;;;;;;28.52;30.73;100440.03;1673404;86;22160;-61
2023/08/24 08:49:07;;;;;;;3.62;1.40;;;;;;;28.72;30.05;100434.52;1673655;86;21051;-61
2023/08/24 08:51:37;;;;;;;2.42;1.85;;;;;;;28.82;30.30;100434.85;1673497;86;21050;-63
2023/08/24 08:54:07;;;;;;;3.17;1.70;;;;;;;28.81;30.43;100440.23;1673564;85;21051;-64
2023/08/24 08:56:38;;;;;;;3.20;1.60;;;;;;;28.72;30.36;100432.53;1673488;86;21090;-62
2023/08/24 08:59:09;;;;;;;5.83;2.35;;;;;;;28.70;30.17;100426.38;1691543;83;21112;-61
2023/08/24 09:01:38;;;;;;;4.00;2.00;;;;;;;28.80;30.24;100421.64;1717834;83;21087;-61
2023/08/24 09:04:07;;;;;;;3.67;1.90;;;;;;;28.97;29.94;100423.23;1725690;83;21035;-63
2023/08/24 09:06:38;;;;;;;3.60;1.50;;;;;;;28.96;29.91;100420.98;1725908;83;21068;-64
2023/08/24 09:09:06;;;;;;;3.87;1.40;;;;;;;28.75;29.92;100418.95;1726109;83;21533;-62
2023/08/24 09:11:36;;;;;;;3.67;1.40;;;;;;;28.49;29.98;100419.52;1698235;83;21051;-62
2023/08/24 09:14:06;;;;;;;3.47;1.80;;;;;;;28.28;30.18;100423.37;1726170;83;21079;-65
2023/08/24 09:16:37;;;;;;;2.42;1.77;;;;;;;28.16;30.70;100423.61;1726117;83;21074;-62
2023/08/24 09:19:07;;;;;;;3.83;1.80;;;;;;;28.05;30.90;100418.77;1726048;83;21490;-62
2023/08/24 09:21:41;;;;;;;7.20;1.57;;;;;;;27.98;30.64;100407.09;1726206;83;21030;-61
2023/08/24 09:24:12;;;;;;;5.17;2.25;;;;;;;27.93;30.82;100415.61;1699331;83;21098;-62
2023/08/24 09:26:44;;;;;;;8.75;1.60;;;;;;;27.90;30.94;100404.40;1726138;83;21070;-63
2023/08/24 09:29:15;;;;;;;3.33;1.47;;;;;;;27.83;30.64;100403.15;1726389;83;21078;-61
2023/08/24 09:31:44;;;;;;;4.65;1.80;;;;;;;27.69;30.94;100404.55;1698137;83;21507;-61
2023/08/24 09:34:14;;;;;;;5.22;2.17;;;;;;;27.56;31.14;100408.16;1725994;83;21023;-60
2023/08/24 09:36:43;;;;;;;2.65;1.70;;;;;;;27.54;31.07;100403.41;1726345;83;21130;-62
2023/08/24 09:39:19;;;;;;;3.70;1.82;;;;;;;27.44;31.31;100395.42;1726197;83;21455;-61
2023/08/24 09:41:50;;;;;;;3.67;1.72;;;;;;;27.39;31.59;100403.96;1698257;83;21058;-61
2023/08/24 09:44:20;;;;;;;3.25;1.80;;;;;;;27.39;31.95;100396.92;1726043;83;21144;-60
2023/08/24 09:46:50;;;;;;;3.37;1.52;;;;;;;27.48;31.78;100399.29;1726437;83;21086;-60
2023/08/24 09:49:20;;;;;;;3.55;1.80;;;;;;;27.54;31.65;100397.20;1698442;83;21093;-62
2023/08/24 09:51:49;;;;;;;3.55;1.75;;;;;;;27.45;31.84;100394.28;1726123;83;21035;-61
2023/08/24 09:54:18;;;;;;;3.62;2.08;;;;;;;27.32;31.96;100392.84;1726129;83;21037;-61
2023/08/24 09:56:49;;;;;;;5.87;2.00;;;;;;;27.19;32.18;100400.66;1726146;83;21078;-62
2023/08/24 09:59:18;;;;;;;3.70;1.67;;;;;;;27.07;31.68;100392.70;1698246;83;21034;-61
2023/08/24 10:01:48;;;;;;;3.50;1.60;;;;;;;26.92;31.49;100397.98;1726346;83;21074;-62
2023/08/24 10:04:25;;;;;;;5.95;1.80;;;;;;;26.83;31.60;100389.41;1698875;84;21074;-61
2023/08/24 10:07:11;;;;;;;3.47;1.90;;;;;;;26.78;31.98;100393.71;1671278;84;21079;-63
2023/08/24 10:10:07;;;;;;;6.55;1.90;;;;;;;26.76;32.19;100387.56;1698972;84;21058;-62
2023/08/24 10:12:37;;;;;;;2.65;1.70;;;;;;;26.67;32.42;100386.58;1698219;84;21082;-61
2023/08/24 10:15:07;;;;;;;6.10;1.90;;;;;;;26.63;32.78;100382.68;1698804;84;21067;-60
2023/08/24 10:17:36;;;;;;;3.87;1.90;;;;;;;26.63;33.12;100384.66;1662558;86;21143;-61
2023/08/24 10:20:09;;;;;;;2.65;1.90;;;;;;;26.64;33.15;100380.70;1655401;87;21785;-62
2023/08/24 10:22:41;;;;;;;3.95;2.02;;;;;;;26.57;32.91;100376.03;1662922;86;21243;-62
2023/08/24 10:25:10;;;;;;;4.42;1.95;;;;;;;26.51;32.93;100374.71;1655586;87;21073;-61
2023/08/24 10:27:43;;;;;;;3.05;2.00;;;;;;;26.51;33.12;100382.31;1634564;88;21064;-62
2023/08/24 10:30:13;;;;;;;4.40;1.65;;;;;;;26.48;33.02;100378.12;1655307;87;21120;-63
2023/08/24 10:32:42;;;;;;;6.58;2.05;;;;;;;26.45;33.54;100372.28;1652195;86;21116;-61
2023/08/24 10:35:11;;;;;;;7.47;3.75;;;;;;;26.43;32.81;100366.13;1653268;87;21076;-61
2023/08/24 10:37:45;;;;;;;5.67;2.02;;;;;;;26.38;33.13;100374.06;1653424;87;21073;-60
2023/08/24 10:40:16;;;;;;;6.20;2.37;;;;;;;26.37;33.11;100372.97;1627685;87;21556;-63
2023/08/24 10:42:46;;;;;;;3.45;1.60;;;;;;;26.38;33.33;100371.83;1627116;87;21127;-62
2023/08/24 10:45:16;;;;;;;5.58;1.70;;;;;;;26.38;33.01;100373.23;1653255;87;21159;-60
2023/08/24 10:47:46;;;;;;;2.58;1.62;;;;;;;26.36;32.74;100367.91;1653115;87;21577;-61
2023/08/24 10:50:15;;;;;;;2.80;1.85;;;;;;;26.36;32.98;100370.73;1653104;87;21120;-63
2023/08/24 10:52:44;;;;;;;2.60;1.50;;;;;;;26.31;32.96;100367.13;1653190;87;21132;-64
2023/08/24 10:55:25;;;;;;;4.72;1.70;;;;;;;26.29;32.81;100360.97;1653211;87;22008;-62
2023/08/24 10:57:59;;;;;;;2.33;1.22;;;;;;;26.29;32.97;100359.00;1653346;87;21550;-61
2023/08/24 11:00:32;;;;;;;5.05;1.47;;;;;;;26.36;32.62;100358.66;1627262;87;21183;-61
2023/08/24 11:03:02;;;;;;;1.80;1.25;;;;;;;26.39;32.58;100356.64;1674430;85;21108;-61
2023/08/24 11:05:32;;;;;;;2.42;1.50;;;;;;;26.44;32.40;100355.16;1695064;84;21092;-61
2023/08/24 11:08:05;;;;;;;4.85;1.87;;;;;;;26.46;32.02;100350.06;1669497;85;21115;-62
2023/08/24 11:10:49;;;;;;;2.35;1.70;;;;;;;26.45;32.07;100354.02;1669697;85;21578;-64
2023/08/24 11:13:22;;;;;;;5.53;2.40;;;;;;;26.48;32.17;100355.65;1695423;85;21040;-64
2023/08/24 11:15:58;;;;;;;4.12;2.00;;;;;;;26.50;32.35;100349.16;1694956;85;21068;-61
2023/08/24 11:18:28;;;;;;;2.72;1.60;;;;;;;26.48;32.42;100344.98;1695082;85;21069;-63
2023/08/24 11:21:06;;;;;;;3.75;1.60;;;;;;;26.49;32.51;100346.65;1647734;85;21049;-61
2023/08/24 11:23:35;;;;;;;;;;;;;;;26.48;32.63;100348.63;1697750;85;21461;-60
2023/08/24 11:26:03;;;;;;;3.20;1.60;;;;;;;26.47;32.77;100341.91;1695177;84;20242;-62
2023/08/24 11:28:33;;;;;;;3.67;1.90;;;;;;;26.46;32.62;100347.26;1695137;85;21052;-62
2023/08/24 11:31:02;;;;;;;3.95;1.82;;;;;;;26.46;32.87;100340.23;1695322;85;21120;-60
2023/08/24 11:33:34;;;;;;;3.52;1.77;;;;;;;26.52;32.84;100337.61;1695136;85;21071;-61
2023/08/24 11:36:07;;;;;;;3.55;1.60;;;;;;;26.60;32.38;100332.70;1695141;85;21143;-60
2023/08/24 11:38:39;;;;;;;1.87;1.50;;;;;;;26.66;32.19;100337.12;1695001;84;21147;-64